Time;durP1;ratioP1;P1;durP2;ratioP2;P2;SDS_P1;SDS_P2;PMS_P1;PMS_P2;Temp;Humidity;BMP_temperature;BMP_pressure;BME280_temperature;BME280_humidity;BME280_pressure;Samples;Min_cycle;Max_cycle;Signal;HPM_P1;HPM_P2
2023/06/12 00:01:36;;;;;;;4.53;4.13;;;28.30;48.60;;;;;;5087499;28;20697;-45
2023/06/12 00:04:07;;;;;;;5.10;4.60;;;28.20;48.40;;;;;;5088099;28;20212;-45
2023/06/12 00:06:38;;;;;;;7.27;4.13;;;28.20;48.30;;;;;;5049804;28;20704;-45
2023/06/12 00:09:07;;;;;;;5.17;4.47;;;28.20;48.30;;;;;;5070946;28;20201;-45
2023/06/12 00:11:39;;;;;;;5.40;4.50;;;28.20;48.10;;;;;;5070956;28;20209;-47
2023/06/12 00:14:10;;;;;;;7.10;3.90;;;28.20;48.20;;;;;;5088084;28;20200;-46
2023/06/12 00:16:38;;;;;;;7.27;4.50;;;28.20;48.10;;;;;;5083849;28;20654;-45
2023/06/12 00:19:08;;;;;;;7.93;4.40;;;28.10;47.70;;;;;;5070506;28;20194;-45
2023/06/12 00:21:39;;;;;;;7.37;4.70;;;28.10;47.60;;;;;;5070729;28;20204;-45
2023/06/12 00:24:10;;;;;;;6.33;4.70;;;28.10;47.50;;;;;;5078221;28;20232;-45
2023/06/12 00:26:40;;;;;;;6.63;4.10;;;28.10;47.70;;;;;;5061141;28;20226;-45
2023/06/12 00:29:09;;;;;;;8.10;4.00;;;28.10;47.90;;;;;;5046435;28;20280;-46
2023/06/12 00:31:40;;;;;;;6.40;4.40;;;28.10;47.70;;;;;;5031719;28;20226;-45
2023/06/12 00:34:11;;;;;;;6.13;4.93;;;28.10;47.70;;;;;;5052514;28;20190;-45
2023/06/12 00:36:47;;;;;;;6.57;4.50;;;28.00;47.60;;;;;;5049189;28;20189;-45
2023/06/12 00:39:29;;;;;;;6.23;4.87;;;28.00;47.50;;;;;;5040964;28;20717;-45
2023/06/12 00:42:00;;;;;;;6.87;4.60;;;28.00;47.60;;;;;;5049681;28;20224;-45
2023/06/12 00:44:29;;;;;;;6.10;4.57;;;28.00;47.40;;;;;;5052297;28;20271;-45
2023/06/12 00:47:04;;;;;;;5.60;4.57;;;28.00;47.40;;;;;;5049957;28;20229;-45
2023/06/12 00:49:32;;;;;;;5.20;4.70;;;28.00;47.50;;;;;;5050031;28;20191;-45
2023/06/12 00:52:08;;;;;;;5.10;4.63;;;28.00;47.40;;;;;;5051470;28;20225;-45
2023/06/12 00:54:50;;;;;;;5.53;4.40;;;28.00;47.10;;;;;;5045385;28;20195;-45
2023/06/12 00:57:22;;;;;;;4.87;4.37;;;27.90;47.30;;;;;;5051639;28;20279;-45
2023/06/12 00:59:54;;;;;;;6.63;4.57;;;27.90;47.10;;;;;;5039685;28;20191;-45
2023/06/12 01:02:27;;;;;;;5.53;4.83;;;27.90;47.10;;;;;;5051907;28;20183;-45
2023/06/12 01:04:59;;;;;;;5.83;4.30;;;27.90;47.20;;;;;;5047516;28;20222;-45
2023/06/12 01:08:01;;;;;;;6.27;4.70;;;27.90;46.90;;;;;;5028212;28;20388;-45
2023/06/12 01:10:40;;;;;;;5.33;4.83;;;27.90;46.90;;;;;;5035434;28;20193;-45
2023/06/12 01:13:11;;;;;;;6.33;4.77;;;27.90;46.70;;;;;;5043125;28;20198;-46
2023/06/12 01:15:47;;;;;;;6.27;4.37;;;27.90;46.60;;;;;;5031721;28;20627;-46
2023/06/12 01:18:17;;;;;;;4.60;4.20;;;27.90;46.90;;;;;;5049228;28;20717;-45
2023/06/12 01:20:53;;;;;;;4.93;4.10;;;27.90;46.90;;;;;;5031778;28;20793;-46
2023/06/12 01:23:52;;;;;;;7.53;4.43;;;27.80;46.70;;;;;;5033549;28;20220;-46
2023/06/12 01:26:56;;;;;;;6.57;4.80;;;27.80;46.70;;;;;;5057278;28;20690;-45
2023/06/12 01:29:50;;;;;;;5.17;4.40;;;27.80;46.60;;;;;;5051858;28;20205;-45
2023/06/12 01:32:20;;;;;;;5.03;4.50;;;27.80;46.70;;;;;;5063556;28;20600;-45
2023/06/12 01:35:13;;;;;;;6.50;4.30;;;27.80;46.50;;;;;;5068104;28;20201;-45
2023/06/12 01:37:54;;;;;;;6.03;4.60;;;27.80;46.60;;;;;;5068015;28;20187;-45
2023/06/12 01:40:30;;;;;;;6.40;4.50;;;27.70;46.60;;;;;;5047280;28;20182;-45
2023/06/12 01:42:59;;;;;;;7.40;4.60;;;27.70;46.40;;;;;;5064271;28;20213;-46
2023/06/12 01:45:28;;;;;;;6.67;4.20;;;27.80;47.10;;;;;;5053081;28;20220;-46
2023/06/12 01:47:57;;;;;;;5.43;4.53;;;27.70;46.60;;;;;;5059146;28;20542;-45
2023/06/12 01:50:27;;;;;;;4.83;4.33;;;27.80;46.60;;;;;;5067885;28;20635;-46
2023/06/12 01:52:58;;;;;;;8.17;4.97;;;27.70;46.40;;;;;;5047799;28;20885;-45
2023/06/12 01:55:29;;;;;;;4.83;4.27;;;27.70;46.40;;;;;;5067651;28;20198;-45
2023/06/12 01:58:00;;;;;;;6.40;4.47;;;27.70;46.50;;;;;;5062267;28;20212;-46
2023/06/12 02:00:31;;;;;;;5.23;4.70;;;27.70;46.40;;;;;;5066732;28;20197;-45
2023/06/12 02:03:01;;;;;;;5.33;4.80;;;27.70;46.40;;;;;;5076950;28;20242;-45
2023/06/12 02:05:33;;;;;;;7.43;4.67;;;27.70;46.50;;;;;;5088419;28;20713;-45
2023/06/12 02:08:01;;;;;;;5.73;4.70;;;27.70;46.30;;;;;;5090285;28;20211;-45
2023/06/12 02:10:32;;;;;;;7.33;5.33;;;27.70;46.90;;;;;;5077413;28;20264;-45
2023/06/12 02:13:04;;;;;;;6.67;4.60;;;27.70;46.10;;;;;;5089361;28;20216;-45
2023/06/12 02:15:36;;;;;;;4.87;4.47;;;27.60;46.40;;;;;;5091336;28;20197;-46
2023/06/12 02:18:09;;;;;;;4.93;4.40;;;27.60;46.20;;;;;;5088861;28;20204;-45
2023/06/12 02:20:39;;;;;;;5.80;4.60;;;27.60;46.30;;;;;;5089362;28;20185;-45
2023/06/12 02:23:14;;;;;;;5.00;4.50;;;27.60;46.30;;;;;;5090334;28;20206;-45
2023/06/12 02:25:46;;;;;;;5.47;4.50;;;27.60;46.40;;;;;;5090263;28;20235;-45
2023/06/12 02:28:16;;;;;;;7.87;5.30;;;27.60;46.40;;;;;;5081923;28;20537;-45
2023/06/12 02:30:44;;;;;;;5.63;4.53;;;27.50;46.40;;;;;;5081146;28;20201;-45
2023/06/12 02:33:14;;;;;;;6.63;4.30;;;27.60;46.50;;;;;;5065038;28;20201;-46
2023/06/12 02:35:47;;;;;;;5.17;4.57;;;27.60;46.40;;;;;;5090513;28;20193;-45
2023/06/12 02:38:17;;;;;;;4.87;4.40;;;27.50;46.30;;;;;;5089335;28;20227;-46
2023/06/12 02:40:47;;;;;;;9.43;4.10;;;27.50;46.40;;;;;;5086373;28;20197;-45
2023/06/12 02:43:14;;;;;;;6.10;4.73;;;27.50;46.40;;;;;;5088895;28;20201;-45
2023/06/12 02:45:45;;;;;;;4.90;4.40;;;27.50;46.30;;;;;;5078212;28;20658;-47
2023/06/12 02:48:16;;;;;;;5.40;4.90;;;27.50;46.10;;;;;;5082280;28;20205;-45
2023/06/12 02:50:47;;;;;;;4.97;4.47;;;27.50;46.10;;;;;;5088897;28;20197;-45
2023/06/12 02:53:18;;;;;;;4.70;4.30;;;27.50;46.10;;;;;;5087703;28;20236;-47
2023/06/12 02:55:49;;;;;;;4.83;4.43;;;27.50;46.10;;;;;;5090432;28;20618;-46
2023/06/12 02:58:22;;;;;;;5.60;5.00;;;27.40;46.10;;;;;;5072097;28;20189;-45
2023/06/12 03:00:51;;;;;;;7.20;4.57;;;27.40;46.00;;;;;;5056458;28;20197;-45
2023/06/12 03:03:25;;;;;;;7.00;4.60;;;27.40;46.00;;;;;;5071373;28;20614;-45
2023/06/12 03:05:53;;;;;;;5.40;4.90;;;27.50;46.10;;;;;;5087196;28;20201;-45
2023/06/12 03:08:24;;;;;;;7.13;4.30;;;27.40;46.10;;;;;;5066910;28;20258;-45
2023/06/12 03:10:55;;;;;;;4.87;4.40;;;27.40;45.90;;;;;;5086903;28;20189;-45
2023/06/12 03:13:32;;;;;;;6.30;4.60;;;27.40;46.20;;;;;;5089011;28;20205;-45
2023/06/12 03:16:02;;;;;;;6.83;4.73;;;27.40;46.10;;;;;;5089639;28;20212;-45
2023/06/12 03:18:34;;;;;;;4.90;4.40;;;27.40;46.00;;;;;;5085667;28;20197;-45
2023/06/12 03:21:03;;;;;;;7.93;4.73;;;27.40;46.00;;;;;;5089991;28;20282;-45
2023/06/12 03:23:33;;;;;;;6.10;4.70;;;27.40;46.00;;;;;;5089236;28;20219;-46
2023/06/12 03:26:02;;;;;;;5.30;4.80;;;27.30;45.90;;;;;;5089374;28;20215;-46
2023/06/12 03:28:30;;;;;;;5.57;4.40;;;27.40;46.00;;;;;;5059521;28;20294;-45
2023/06/12 03:31:01;;;;;;;7.30;4.53;;;27.30;45.80;;;;;;5086303;28;20215;-46
2023/06/12 03:33:33;;;;;;;5.57;4.67;;;27.30;45.80;;;;;;5089044;28;20217;-45
2023/06/12 03:36:05;;;;;;;5.67;4.93;;;27.30;45.80;;;;;;5088968;28;20201;-45
2023/06/12 03:38:34;;;;;;;5.77;5.13;;;27.40;45.70;;;;;;5087959;28;20193;-45
2023/06/12 03:41:05;;;;;;;6.67;5.20;;;27.30;45.70;;;;;;5082904;28;20216;-45
2023/06/12 03:43:37;;;;;;;7.33;4.50;;;27.30;45.70;;;;;;5080435;28;20197;-45
2023/06/12 03:46:08;;;;;;;8.30;5.00;;;27.30;45.70;;;;;;5089441;28;20443;-45
2023/06/12 03:48:39;;;;;;;6.83;4.80;;;27.30;45.80;;;;;;5087824;28;20209;-45
2023/06/12 03:51:08;;;;;;;8.17;5.03;;;27.30;45.70;;;;;;5089809;28;20586;-46
2023/06/12 03:53:41;;;;;;;6.00;5.23;;;27.20;45.30;;;;;;5086113;28;20264;-46
2023/06/12 03:56:15;;;;;;;5.17;4.67;;;27.20;45.50;;;;;;5056227;28;20278;-46
2023/06/12 03:58:49;;;;;;;6.77;4.90;;;27.20;45.60;;;;;;5075563;28;20189;-45
2023/06/12 04:01:18;;;;;;;5.57;4.70;;;27.20;45.70;;;;;;5089275;28;20224;-45
2023/06/12 04:03:49;;;;;;;6.43;5.67;;;27.10;45.60;;;;;;5088847;28;20201;-46
2023/06/12 04:06:41;;;;;;;10.90;5.40;;;27.20;45.60;;;;;;5082786;28;20219;-45
2023/06/12 04:09:16;;;;;;;5.70;5.13;;;27.10;45.30;;;;;;5081359;28;20202;-45
2023/06/12 04:11:49;;;;;;;18.17;5.43;;;27.10;45.40;;;;;;5084172;28;20211;-46
2023/06/12 04:14:21;;;;;;;5.20;4.70;;;27.10;45.50;;;;;;5060465;28;20200;-45
2023/06/12 04:16:52;;;;;;;6.17;4.87;;;27.10;45.60;;;;;;5084570;28;20200;-45
2023/06/12 04:19:42;;;;;;;6.00;4.20;;;27.10;45.70;;;;;;5088838;28;20311;-46
2023/06/12 04:22:12;;;;;;;5.57;4.97;;;27.00;45.60;;;;;;5089148;28;20205;-45
2023/06/12 04:25:04;;;;;;;5.80;4.87;;;27.00;45.70;;;;;;5086129;28;20232;-45
2023/06/12 04:27:34;;;;;;;5.30;4.53;;;27.00;45.70;;;;;;5085571;28;20685;-46
2023/06/12 04:30:03;;;;;;;6.87;4.57;;;27.00;45.80;;;;;;5081294;28;20231;-47
2023/06/12 04:32:46;;;;;;;7.70;5.13;;;27.00;45.80;;;;;;5085597;28;20233;-46
2023/06/12 04:35:20;;;;;;;5.63;4.47;;;27.00;45.70;;;;;;5087828;28;20185;-45
2023/06/12 04:37:52;;;;;;;6.20;5.20;;;27.00;45.60;;;;;;5088545;28;20247;-46
2023/06/12 04:40:22;;;;;;;5.87;4.83;;;27.00;45.70;;;;;;5071738;28;20194;-46
2023/06/12 04:42:57;;;;;;;5.07;4.57;;;27.00;46.00;;;;;;5078532;28;20201;-46
2023/06/12 04:45:32;;;;;;;4.63;4.23;;;27.00;45.90;;;;;;5087839;28;20240;-46
2023/06/12 04:48:03;;;;;;;6.43;4.50;;;27.00;46.00;;;;;;5087716;28;20207;-46
2023/06/12 04:50:33;;;;;;;6.20;4.80;;;27.00;46.00;;;;;;5097016;28;20201;-46
2023/06/12 04:53:03;;;;;;;9.77;5.37;;;26.90;45.80;;;;;;5085242;28;20328;-46
2023/06/12 04:55:34;;;;;;;6.20;4.90;;;26.90;45.70;;;;;;5088464;28;20212;-46
2023/06/12 04:58:05;;;;;;;5.50;4.70;;;26.90;45.80;;;;;;5082586;28;20637;-46
2023/06/12 05:00:35;;;;;;;7.90;5.47;;;26.90;45.80;;;;;;5085004;28;20531;-46
2023/06/12 05:03:05;;;;;;;9.67;5.00;;;26.90;45.60;;;;;;5087767;28;20606;-45
2023/06/12 05:05:34;;;;;;;7.07;5.23;;;27.00;45.60;;;;;;5086385;28;20209;-45
2023/06/12 05:08:05;;;;;;;8.30;4.80;;;26.90;45.30;;;;;;5088393;28;20215;-46
2023/06/12 05:10:37;;;;;;;6.43;5.67;;;26.90;45.40;;;;;;5088714;28;20276;-46
2023/06/12 05:13:07;;;;;;;6.27;5.53;;;26.80;45.30;;;;;;5084081;28;20597;-47
2023/06/12 05:15:37;;;;;;;9.17;6.33;;;26.90;44.90;;;;;;5092131;28;20216;-46
2023/06/12 05:18:08;;;;;;;6.10;5.50;;;26.80;44.80;;;;;;5082611;28;20562;-46
2023/06/12 05:20:38;;;;;;;7.93;5.40;;;26.80;44.80;;;;;;5089411;28;20193;-45
2023/06/12 05:23:09;;;;;;;5.93;5.10;;;26.80;44.90;;;;;;5092098;28;20207;-46
2023/06/12 05:25:40;;;;;;;8.20;6.03;;;26.80;44.80;;;;;;5074602;28;20220;-46
2023/06/12 05:28:25;;;;;;;6.80;6.10;;;26.80;44.80;;;;;;5091669;28;20212;-46
2023/06/12 05:30:55;;;;;;;8.87;5.97;;;26.80;44.50;;;;;;5084623;28;20645;-45
2023/06/12 05:33:29;;;;;;;8.80;6.20;;;26.70;44.50;;;;;;5090043;28;20232;-46
2023/06/12 05:36:13;;;;;;;11.00;6.50;;;26.70;44.50;;;;;;5081414;28;20243;-46
2023/06/12 05:38:48;;;;;;;7.23;6.27;;;26.70;44.80;;;;;;5077154;28;20197;-46
2023/06/12 05:41:18;;;;;;;5.93;5.33;;;26.60;44.50;;;;;;5085314;28;20686;-46
2023/06/12 05:43:50;;;;;;;8.73;5.33;;;26.50;43.30;;;;;;5091640;28;20205;-45
2023/06/12 05:46:20;;;;;;;5.50;5.00;;;26.20;41.50;;;;;;5087724;28;20219;-45
2023/06/12 05:48:51;;;;;;;5.27;4.00;;;25.90;41.30;;;;;;5089769;28;20193;-45
2023/06/12 05:51:35;;;;;;;6.17;4.80;;;25.40;41.30;;;;;;5085202;28;20283;-46
2023/06/12 05:54:12;;;;;;;7.13;4.67;;;25.30;41.80;;;;;;5072095;28;20223;-45
2023/06/12 05:56:44;;;;;;;6.20;5.10;;;25.20;41.60;;;;;;5082020;28;20196;-45
2023/06/12 05:59:16;;;;;;;4.93;4.53;;;25.20;41.90;;;;;;5080754;28;20223;-45
2023/06/12 06:01:47;;;;;;;6.63;5.20;;;25.00;42.30;;;;;;5090665;28;20250;-45
2023/06/12 06:04:26;;;;;;;7.00;4.90;;;24.90;42.50;;;;;;5074921;28;20296;-45
2023/06/12 06:07:00;;;;;;;10.13;5.07;;;24.80;42.90;;;;;;5086001;28;20205;-44
2023/06/12 06:09:44;;;;;;;7.97;4.70;;;24.80;43.30;;;;;;5088375;28;20548;-45
2023/06/12 06:12:15;;;;;;;10.97;5.40;;;24.70;43.40;;;;;;5090960;28;20225;-44
2023/06/12 06:14:52;;;;;;;8.90;4.97;;;24.70;43.40;;;;;;5083189;28;20198;-45
2023/06/12 06:17:23;;;;;;;7.23;5.00;;;24.60;43.50;;;;;;5089318;28;20217;-45
2023/06/12 06:19:55;;;;;;;10.80;5.00;;;24.50;43.60;;;;;;5090723;28;20197;-45
2023/06/12 06:22:24;;;;;;;7.83;4.83;;;24.30;43.60;;;;;;5074584;28;20201;-45
2023/06/12 06:25:09;;;;;;;8.40;4.70;;;24.20;43.60;;;;;;5092963;28;20185;-45
2023/06/12 06:27:40;;;;;;;9.57;4.87;;;24.10;43.70;;;;;;5091538;28;20253;-45
2023/06/12 06:30:11;;;;;;;7.27;4.30;;;24.00;43.60;;;;;;5072041;28;20221;-45
2023/06/12 06:32:42;;;;;;;8.83;4.83;;;23.90;43.70;;;;;;5087870;28;20224;-46
2023/06/12 06:35:24;;;;;;;5.83;4.40;;;23.80;44.40;;;;;;5090290;28;20606;-45
2023/06/12 06:37:54;;;;;;;9.53;4.47;;;23.70;43.80;;;;;;5088671;28;20201;-45
2023/06/12 06:40:25;;;;;;;6.17;4.30;;;23.60;44.50;;;;;;5091095;28;20201;-44
2023/06/12 06:42:57;;;;;;;5.83;4.47;;;23.60;45.00;;;;;;5080285;28;20206;-45
2023/06/12 06:45:29;;;;;;;5.50;3.97;;;23.60;45.40;;;;;;5089944;28;20211;-47
2023/06/12 06:47:58;;;;;;;6.00;3.90;;;23.50;45.50;;;;;;5076699;28;20185;-45
2023/06/12 06:50:28;;;;;;;7.70;4.10;;;23.50;45.80;;;;;;5094221;28;20227;-45
2023/06/12 06:52:57;;;;;;;5.40;4.13;;;23.50;47.40;;;;;;5086889;28;20207;-46
2023/06/12 06:55:26;;;;;;;7.27;4.43;;;23.70;53.40;;;;;;5088378;28;20216;-45
2023/06/12 06:57:57;;;;;;;7.27;4.67;;;23.90;55.80;;;;;;5073259;28;20191;-47
2023/06/12 07:00:29;;;;;;;7.40;4.17;;;23.90;51.20;;;;;;5091081;28;20205;-45
2023/06/12 07:03:02;;;;;;;6.73;4.37;;;23.80;46.70;;;;;;5084692;28;20200;-47
2023/06/12 07:05:42;;;;;;;6.17;4.13;;;23.60;46.60;;;;;;5088261;28;20588;-45
2023/06/12 07:08:12;;;;;;;5.37;3.93;;;23.70;48.10;;;;;;5089812;28;20209;-46
2023/06/12 07:10:42;;;;;;;6.67;4.10;;;23.80;50.40;;;;;;5078410;28;20239;-45
2023/06/12 07:13:14;;;;;;;6.40;4.10;;;23.90;55.20;;;;;;5083790;28;20217;-45
2023/06/12 07:15:45;;;;;;;6.07;3.80;;;24.10;57.00;;;;;;5086739;28;20197;-47
2023/06/12 07:18:17;;;;;;;4.90;3.97;;;24.20;52.20;;;;;;5087838;28;20238;-46
2023/06/12 07:20:53;;;;;;;5.57;3.97;;;24.10;47.30;;;;;;5081705;28;20674;-45
2023/06/12 07:23:25;;;;;;;6.40;4.30;;;24.00;50.60;;;;;;5089427;28;20205;-46
2023/06/12 07:25:55;;;;;;;7.30;3.83;;;24.20;54.70;;;;;;5089789;28;20181;-46
2023/06/12 07:28:24;;;;;;;4.13;3.73;;;24.40;57.10;;;;;;5089114;28;20278;-46
2023/06/12 07:30:57;;;;;;;5.90;4.10;;;24.50;55.30;;;;;;5081736;28;20244;-45
2023/06/12 07:33:27;;;;;;;4.27;3.87;;;24.40;49.10;;;;;;5073609;28;20220;-46
2023/06/12 07:36:04;;;;;;;4.17;3.77;;;24.20;47.00;;;;;;5092131;28;20200;-45
2023/06/12 07:38:33;;;;;;;5.13;4.20;;;24.20;53.30;;;;;;5091097;28;20231;-46
2023/06/12 07:41:01;;;;;;;6.47;4.80;;;24.40;56.80;;;;;;5085033;28;20209;-46
2023/06/12 07:43:34;;;;;;;4.60;4.20;;;24.60;58.90;;;;;;5088695;28;20684;-47
2023/06/12 07:46:04;;;;;;;4.30;3.50;;;24.70;56.50;;;;;;5073023;28;20208;-47
2023/06/12 07:48:39;;;;;;;5.90;4.00;;;24.60;50.20;;;;;;5085850;28;20218;-46
2023/06/12 07:51:09;;;;;;;4.33;3.93;;;24.40;47.20;;;;;;5085538;28;20209;-47
2023/06/12 07:53:37;;;;;;;4.80;4.30;;;24.40;52.90;;;;;;5068574;28;20673;-46
2023/06/12 07:56:09;;;;;;;5.67;4.50;;;24.60;56.30;;;;;;5089015;28;20618;-45
2023/06/12 07:58:39;;;;;;;5.07;4.03;;;24.80;58.00;;;;;;5086128;28;20197;-45
2023/06/12 08:01:11;;;;;;;4.73;4.10;;;24.80;51.90;;;;;;5089102;28;20247;-45
2023/06/12 08:03:42;;;;;;;5.30;3.97;;;24.60;47.70;;;;;;5087953;28;20761;-47
2023/06/12 08:06:15;;;;;;;5.70;3.83;;;24.50;49.60;;;;;;5086939;28;20212;-46
2023/06/12 08:08:47;;;;;;;4.77;4.03;;;24.60;54.60;;;;;;5085244;28;20185;-47
2023/06/12 08:11:19;;;;;;;4.30;3.90;;;24.70;57.30;;;;;;5089313;28;20250;-46
2023/06/12 08:13:47;;;;;;;4.10;3.60;;;24.90;56.50;;;;;;5090045;28;20219;-47
2023/06/12 08:16:18;;;;;;;4.50;4.00;;;24.70;49.90;;;;;;5090699;28;20283;-47
2023/06/12 08:18:49;;;;;;;5.10;4.60;;;24.60;48.50;;;;;;5073635;28;20213;-46
2023/06/12 08:21:21;;;;;;;5.33;4.37;;;24.70;54.60;;;;;;5074108;28;20237;-46
2023/06/12 08:23:51;;;;;;;5.10;4.40;;;24.80;57.20;;;;;;5089693;28;20204;-46
2023/06/12 08:26:20;;;;;;;6.87;4.20;;;24.90;57.60;;;;;;5089628;28;20263;-46
2023/06/12 08:28:52;;;;;;;4.17;3.70;;;24.90;50.30;;;;;;5085762;28;20189;-46
2023/06/12 08:31:27;;;;;;;5.20;4.07;;;24.80;47.60;;;;;;5070009;28;20216;-46
2023/06/12 08:33:59;;;;;;;4.73;4.20;;;24.80;53.90;;;;;;5085232;28;20228;-46
2023/06/12 08:36:29;;;;;;;4.57;4.17;;;24.90;56.80;;;;;;5071796;28;20181;-47
2023/06/12 08:39:00;;;;;;;4.53;4.07;;;25.00;56.40;;;;;;5086954;28;20735;-47
2023/06/12 08:41:43;;;;;;;5.27;4.20;;;25.00;50.00;;;;;;5089478;28;20201;-46
2023/06/12 08:44:29;;;;;;;4.30;3.90;;;24.80;48.10;;;;;;5077536;28;20197;-46
2023/06/12 08:47:03;;;;;;;4.93;4.43;;;24.90;54.60;;;;;;5097145;28;20626;-46
2023/06/12 08:49:31;;;;;;;5.00;3.80;;;25.00;57.30;;;;;;5094766;28;20205;-46
2023/06/12 08:52:06;;;;;;;4.80;4.30;;;25.10;54.20;;;;;;5101272;28;20192;-45
2023/06/12 08:54:40;;;;;;;4.47;4.03;;;25.00;49.10;;;;;;5079455;28;20236;-46
2023/06/12 08:57:09;;;;;;;7.93;4.70;;;24.90;50.80;;;;;;5076484;28;20201;-46
2023/06/12 08:59:40;;;;;;;4.43;4.03;;;25.00;55.60;;;;;;5087209;28;20193;-46
2023/06/12 09:02:16;;;;;;;5.53;4.17;;;25.20;57.30;;;;;;5094919;28;20314;-46
2023/06/12 09:05:06;;;;;;;4.37;3.97;;;25.20;50.70;;;;;;5087704;28;20282;-46
2023/06/12 09:07:37;;;;;;;5.70;4.33;;;24.90;47.50;;;;;;5076830;28;20680;-46
2023/06/12 09:10:18;;;;;;;5.50;4.20;;;25.00;53.80;;;;;;5078849;28;20212;-46
2023/06/12 09:12:56;;;;;;;5.07;4.67;;;25.10;57.10;;;;;;5072007;28;20578;-47
2023/06/12 09:15:29;;;;;;;14.47;4.47;;;25.20;54.50;;;;;;5074225;28;20201;-48
2023/06/12 09:18:01;;;;;;;4.90;4.30;;;25.00;49.00;;;;;;5084099;28;20217;-46
2023/06/12 09:20:32;;;;;;;4.60;4.20;;;24.90;47.50;;;;;;5093550;28;20196;-47
2023/06/12 09:23:12;;;;;;;5.57;4.90;;;24.90;53.80;;;;;;5087558;28;20293;-47
2023/06/12 09:25:44;;;;;;;5.20;4.13;;;25.10;57.20;;;;;;5060037;28;20518;-46
2023/06/12 09:28:36;;;;;;;5.17;4.60;;;25.10;54.50;;;;;;5066128;28;20550;-47
2023/06/12 09:31:04;;;;;;;4.60;4.20;;;25.00;48.70;;;;;;5062124;28;20203;-47
2023/06/12 09:33:39;;;;;;;4.70;4.20;;;24.90;48.40;;;;;;5086361;28;20209;-47
2023/06/12 09:36:12;;;;;;;6.23;4.40;;;25.00;54.40;;;;;;5090837;28;20642;-46
2023/06/12 09:38:42;;;;;;;14.03;4.27;;;25.20;57.20;;;;;;5091855;28;20203;-47
2023/06/12 09:41:14;;;;;;;4.80;4.40;;;25.20;54.00;;;;;;5087238;28;20716;-46
2023/06/12 09:43:46;;;;;;;5.40;4.30;;;25.10;49.20;;;;;;5086939;28;20236;-46
2023/06/12 09:46:26;;;;;;;5.67;4.27;;;24.90;47.70;;;;;;5085534;28;20198;-46
2023/06/12 09:48:57;;;;;;;4.43;4.03;;;25.00;54.50;;;;;;5090045;28;20205;-46
2023/06/12 09:51:46;;;;;;;5.50;4.37;;;25.20;57.70;;;;;;5101725;28;20243;-47
2023/06/12 09:54:19;;;;;;;6.50;4.27;;;25.20;53.00;;;;;;5070015;28;20586;-47
2023/06/12 09:56:59;;;;;;;4.50;4.10;;;25.10;48.80;;;;;;5042503;28;20205;-46
2023/06/12 09:59:32;;;;;;;6.10;4.23;;;24.90;49.90;;;;;;5090441;28;20197;-46
2023/06/12 10:02:23;;;;;;;5.60;4.30;;;25.10;56.00;;;;;;5074651;28;20188;-46
2023/06/12 10:05:20;;;;;;;4.80;4.30;;;25.30;56.80;;;;;;5086593;28;20189;-47
2023/06/12 10:07:52;;;;;;;5.93;4.50;;;25.20;50.10;;;;;;5081827;28;20222;-46
2023/06/12 10:10:24;;;;;;;6.87;4.30;;;25.00;48.10;;;;;;5073337;28;20201;-45
2023/06/12 10:13:01;;;;;;;4.60;4.07;;;25.20;49.20;;;;;;5084402;28;20835;-48
2023/06/12 10:15:33;;;;;;;5.53;4.17;;;25.40;49.60;;;;;;5057378;28;20604;-47
2023/06/12 10:18:02;;;;;;;5.17;4.13;;;25.60;49.80;;;;;;5071662;28;20212;-45
2023/06/12 10:20:33;;;;;;;6.17;4.47;;;25.80;49.70;;;;;;5085899;28;20209;-45
2023/06/12 10:23:07;;;;;;;5.13;3.97;;;26.00;49.70;;;;;;5091056;28;20511;-46
2023/06/12 10:25:40;;;;;;;4.53;3.70;;;26.10;49.60;;;;;;5073494;28;20185;-47
2023/06/12 10:28:11;;;;;;;4.67;3.93;;;26.20;49.50;;;;;;5088129;28;20217;-46
2023/06/12 10:31:12;;;;;;;4.40;4.03;;;26.30;49.50;;;;;;5067716;28;20634;-46
2023/06/12 10:34:10;;;;;;;4.40;4.00;;;26.50;49.30;;;;;;5088515;28;20242;-46
2023/06/12 10:36:47;;;;;;;4.47;4.07;;;26.60;49.30;;;;;;5077398;28;20763;-45
2023/06/12 10:39:25;;;;;;;4.60;4.20;;;26.70;49.20;;;;;;5073394;28;20619;-45
2023/06/12 10:41:58;;;;;;;4.50;4.10;;;26.80;49.30;;;;;;5080069;28;20210;-45
2023/06/12 10:44:39;;;;;;;4.50;4.10;;;26.80;49.10;;;;;;5092006;28;20633;-45
2023/06/12 10:47:27;;;;;;;4.30;3.90;;;26.90;49.10;;;;;;5088938;28;20213;-45
2023/06/12 10:50:05;;;;;;;4.27;3.87;;;27.00;49.00;;;;;;5094854;28;20641;-45
2023/06/12 10:52:32;;;;;;;4.23;3.83;;;27.10;49.10;;;;;;5079289;28;20320;-45
2023/06/12 10:55:18;;;;;;;4.17;3.77;;;27.10;49.00;;;;;;5065750;28;20233;-45
2023/06/12 10:57:54;;;;;;;5.27;4.13;;;27.30;49.00;;;;;;5074014;28;20573;-46
2023/06/12 11:00:36;;;;;;;5.50;4.67;;;27.30;50.50;;;;;;5072445;28;20238;-46
2023/06/12 11:03:33;;;;;;;6.10;4.50;;;27.20;49.70;;;;;;5092780;28;20634;-46
2023/06/12 11:06:16;;;;;;;6.43;4.13;;;26.80;46.30;;;;;;5079648;28;20217;-46
2023/06/12 11:08:50;;;;;;;8.03;4.80;;;26.50;46.40;;;;;;5072439;28;20203;-46
2023/06/12 11:11:22;;;;;;;9.23;4.37;;;26.40;47.00;;;;;;5079680;28;20224;-45
2023/06/12 11:13:53;;;;;;;4.60;4.20;;;26.40;47.90;;;;;;5090491;28;20225;-46
2023/06/12 11:16:26;;;;;;;4.80;4.40;;;26.30;49.00;;;;;;5090249;28;20201;-46
2023/06/12 11:19:08;;;;;;;5.17;4.67;;;26.30;49.80;;;;;;5085164;28;20591;-46
2023/06/12 11:21:41;;;;;;;4.60;4.20;;;26.30;50.10;;;;;;5073526;28;20185;-47
2023/06/12 11:24:15;;;;;;;5.87;4.30;;;26.20;50.30;;;;;;5074784;28;20219;-45
2023/06/12 11:26:52;;;;;;;5.10;4.60;;;26.20;50.30;;;;;;5089714;28;20243;-46
2023/06/12 11:29:37;;;;;;;5.00;4.50;;;26.20;50.50;;;;;;5075929;28;20252;-45
2023/06/12 11:32:30;;;;;;;4.83;4.33;;;26.20;50.30;;;;;;5077664;28;20196;-46
2023/06/12 11:35:01;;;;;;;5.03;4.57;;;26.20;50.50;;;;;;5069211;28;20219;-46
2023/06/12 11:37:32;;;;;;;4.97;4.50;;;26.20;50.70;;;;;;5089595;28;20211;-46
2023/06/12 11:40:11;;;;;;;5.07;4.60;;;26.20;50.70;;;;;;5072701;28;20197;-46
2023/06/12 11:42:44;;;;;;;5.20;4.70;;;26.20;50.70;;;;;;5088652;28;20216;-46
2023/06/12 11:45:15;;;;;;;4.80;4.40;;;26.10;50.60;;;;;;5076856;28;20201;-46
2023/06/12 11:47:46;;;;;;;4.67;4.27;;;26.20;50.70;;;;;;5089971;28;20681;-47
2023/06/12 11:50:21;;;;;;;4.90;4.50;;;26.20;50.70;;;;;;5072813;28;20235;-46
2023/06/12 11:52:58;;;;;;;6.00;4.87;;;26.10;50.40;;;;;;5055456;28;20275;-46
2023/06/12 11:55:29;;;;;;;4.93;4.43;;;26.10;50.50;;;;;;5075710;28;20314;-46
2023/06/12 11:58:19;;;;;;;5.27;4.77;;;26.10;50.50;;;;;;5038317;28;20276;-46
2023/06/12 12:00:49;;;;;;;4.80;4.40;;;26.00;50.30;;;;;;5043537;28;20248;-46
2023/06/12 12:03:23;;;;;;;5.33;4.83;;;26.00;50.50;;;;;;5029942;28;20279;-46
2023/06/12 12:05:52;;;;;;;4.90;4.50;;;26.00;50.50;;;;;;5020595;28;20702;-47
2023/06/12 12:08:26;;;;;;;4.80;4.40;;;26.00;50.50;;;;;;5042400;28;20226;-46
2023/06/12 12:10:55;;;;;;;4.47;4.07;;;26.00;50.50;;;;;;5027194;28;20237;-46
2023/06/12 12:13:30;;;;;;;4.80;4.33;;;26.00;50.40;;;;;;5045730;28;20233;-48
2023/06/12 12:16:12;;;;;;;4.80;4.20;;;26.00;50.40;;;;;;5059595;28;20228;-46
2023/06/12 12:18:44;;;;;;;4.90;4.50;;;26.00;50.20;;;;;;5066858;28;20211;-45
2023/06/12 12:21:16;;;;;;;7.40;4.33;;;26.00;50.30;;;;;;5081843;28;20238;-46
2023/06/12 12:23:46;;;;;;;4.67;4.27;;;26.00;50.50;;;;;;5074838;28;20180;-47
2023/06/12 12:26:18;;;;;;;5.00;4.50;;;26.00;50.30;;;;;;5092392;28;20193;-45
2023/06/12 12:28:50;;;;;;;4.63;4.20;;;26.00;50.40;;;;;;5089617;28;20188;-48
2023/06/12 12:31:20;;;;;;;4.70;4.30;;;26.00;50.20;;;;;;5085413;28;20197;-46
2023/06/12 12:33:49;;;;;;;4.73;4.17;;;25.90;50.10;;;;;;5092648;28;20205;-45
2023/06/12 12:36:19;;;;;;;5.87;4.20;;;25.80;50.80;;;;;;5090372;28;20226;-45
2023/06/12 12:38:49;;;;;;;5.97;4.37;;;25.80;50.50;;;;;;5090427;28;20196;-45
2023/06/12 12:41:26;;;;;;;5.03;4.47;;;25.90;50.40;;;;;;5092721;28;20197;-45
2023/06/12 12:43:56;;;;;;;4.50;4.10;;;25.90;50.30;;;;;;5089670;28;20558;-45
2023/06/12 12:46:30;;;;;;;4.63;4.20;;;25.90;50.10;;;;;;5101202;28;20195;-47
2023/06/12 12:48:58;;;;;;;4.83;4.43;;;25.90;50.10;;;;;;5074996;28;20208;-45
2023/06/12 12:51:29;;;;;;;4.53;4.13;;;25.90;50.10;;;;;;5075451;28;20193;-46
2023/06/12 12:54:01;;;;;;;4.47;4.03;;;25.90;50.10;;;;;;5091915;28;20229;-45
2023/06/12 12:56:31;;;;;;;5.80;4.33;;;25.90;50.30;;;;;;5089956;28;20756;-46
2023/06/12 12:58:58;;;;;;;4.30;3.97;;;25.90;50.40;;;;;;5071244;28;20203;-46
2023/06/12 13:01:29;;;;;;;4.37;4.00;;;25.90;50.50;;;;;;5092137;28;20527;-46
2023/06/12 13:04:02;;;;;;;4.90;4.50;;;25.90;54.60;;;;;;5090837;28;20271;-47
2023/06/12 13:06:38;;;;;;;4.27;3.90;;;26.00;55.80;;;;;;5086681;28;20200;-47
2023/06/12 13:09:08;;;;;;;4.57;4.10;;;26.00;51.20;;;;;;5089114;28;20220;-47
2023/06/12 13:11:37;;;;;;;5.43;4.60;;;25.80;49.20;;;;;;5089950;28;20229;-47
2023/06/12 13:14:04;;;;;;;4.60;4.20;;;26.00;55.90;;;;;;5088134;28;20548;-47
2023/06/12 13:16:34;;;;;;;4.20;3.80;;;26.10;56.10;;;;;;5090804;28;20564;-47
2023/06/12 13:19:04;;;;;;;5.10;4.07;;;26.10;51.20;;;;;;5087261;28;20688;-47